x

Ne Bahamas - 350 Nm Ene Of Nassau, Bahamas (41047) Wave Buoy

5:50am - Sun 20th Apr 2014 All times are UTC.

  • Sig Wave height 5.9ft
  • Swell Direction
  • Peak Period 9s
  • Average Period 6s
  • Wind
    20mph, 25mph gusts
  • Sea Temp 76°f
  • Air Temp 76°f
  • Sea Pressure 1016.6mb

More Historic Weather Station data

Upgrade to MSW Pro to gain access to the past 30 days of data for over 8000 Wavebouys and Weather Stations around the globe.

Join Pro

Comparision Forecast

View Surf forecast
   
Sun 04/20 5:50am 6ft 9s 6s 20 25 mph 1016.6mb 76f 76f
4:50am 5.5ft 11s 6s 18 20 mph 1017.9mb 76f 76f
3:50am 6.5ft 9s 7s 18 20 mph 1018.1mb 76f 76f
2:50am 6ft 8s 6s 16 20 mph 1018.5mb 76f 76f
1:50am 6ft 8s 6s 16 20 mph 1018.8mb 76f 76f
12:50am 6.5ft 9s 6s 13 18 mph 1018.9mb 76f 76f
Sat 04/19 11:50pm 6.5ft 10s 6s 16 18 mph 1018.6mb 76f 76f
10:50pm 7ft 9s 7s 16 20 mph 1018.5mb 76f 76f
9:50pm 6ft 9s 6s 16 20 mph 1018.1mb 76f 76f
8:50pm 7ft 9s 7s 16 18 mph 1018.5mb 76f 76f
7:50pm 7ft 8s 6s 16 20 mph 1018.5mb 76f 76f
6:50pm 6.5ft 9s 6s 16 20 mph 1019.2mb 76f 76f
5:50pm 6.5ft 9s 6s 18 22 mph 1019.7mb 76f 76f
4:50pm 6.5ft 9s 6s 18 22 mph 1020mb 76f 76f
3:50pm 7ft 9s 6s 18 22 mph 1020.6mb 76f 76f
2:50pm 6.5ft 9s 6s 18 22 mph 1020.9mb 76f 76f
1:50pm 7ft 8s 6s 20 22 mph 1020.4mb 76f 76f
12:50pm 7.5ft 9s 6s 20 25 mph 1020mb 76f 75f
11:50am 7ft 10s 6s 22 27 mph 1019.7mb 76f 75f
10:50am 7.5ft 9s 6s 22 27 mph 1019.4mb 76f 75f
9:50am 7ft 9s 6s 20 25 mph 1019.3mb 76f 75f
8:50am 7.5ft 9s 6s 20 25 mph 1019mb 76f 75f
7:50am 7.5ft 9s 6s 22 27 mph 1019mb 76f 75f
6:50am 7ft 9s 6s 20 25 mph 1019.6mb 76f 75f
5:50am 7ft 9s 7s 20 22 mph 1020.4mb 76f 75f
4:50am 7ft 10s 6s 20 25 mph 1020.8mb 76f 75f
3:50am 7ft 9s 6s 20 25 mph 1021.2mb 76f 75f
2:50am 8ft 9s 7s 18 22 mph 1021.3mb 76f 75f
1:50am 8ft 10s 7s 18 20 mph 1021.5mb 76f 76f
12:50am 7.5ft 10s 7s 18 22 mph 1021.3mb 76f 76f
Fri 04/18 11:50pm 7.5ft 10s 7s 18 20 mph 1021mb 76f 76f
10:50pm 8ft 9s 7s 18 20 mph 1020.7mb 76f 76f
9:50pm 8ft 9s 7s 16 20 mph 1020.9mb 76f 75f
8:50pm 7.5ft 9s 7s 18 20 mph 1021mb 77f 75f
7:50pm 8ft 10s 7s 16 20 mph 1021.1mb 76f 75f
6:50pm 8ft 10s 7s 16 18 mph 1021.4mb 76f 76f
5:50pm 7.5ft 10s 7s 16 18 mph 1021.8mb 76f 75f
4:50pm 8ft 10s 7s 16 20 mph 1021.9mb 76f 75f
3:50pm 7ft 9s 7s 18 22 mph 1022.1mb 76f 75f
2:50pm 7.5ft 10s 7s 16 18 mph 1022.1mb 76f 75f
1:50pm 7ft 9s 7s 16 20 mph 1022mb 76f 75f
12:50pm 8ft 10s 7s 16 20 mph 1021.6mb 76f 75f
11:50am 8ft 10s 8s 16 18 mph 1021.2mb 76f 75f
10:50am 8ft 10s 8s 16 18 mph 1020.9mb 76f 74f
9:50am 8.5ft 10s 8s 13 16 mph 1020.5mb 75f 74f
8:50am 7.5ft 10s 8s 13 16 mph 1020.6mb 75f 74f
7:50am 8ft 10s 8s 13 18 mph 1020.7mb 75f 74f
6:50am 7.5ft 11s 8s 11 13 mph 1021.1mb 75f 74f
5:50am 8ft 11s 8s 13 16 mph 1020.9mb 75f 74f
4:50am 8ft 10s 8s 16 20 mph 1021.1mb 76f 74f
3:50am 7.5ft 11s 7s 16 20 mph 1021.6mb 76f 74f
2:50am 8ft 9s 8s 13 16 mph 1022.4mb 76f 74f
1:50am 8ft 11s 8s 13 16 mph 1022.6mb 76f 74f
12:50am 8ft 11s 8s 13 16 mph 1022.5mb 76f 74f
Thu 04/17 11:50pm 8ft 11s 8s 11 13 mph 1022.2mb 76f 74f
10:50pm 8ft 10s 8s 11 13 mph 1021.9mb 76f 75f
9:50pm 8ft 10s 8s 11 13 mph 1021.9mb 76f 75f
8:50pm 8ft 10s 8s 11 13 mph 1021.9mb 76f 75f
7:50pm 8ft 10s 8s 11
mph
1022mb 76f 75f
6:50pm 7.5ft 10s 8s 9 11 mph 1022.2mb 76f 74f
5:50pm 8.5ft 9s 8s 9 11 mph 1022.6mb 76f 74f
4:50pm 9ft 11s 9s 9 11 mph 1022.8mb 76f 74f
3:50pm 9ft 10s 9s 7 9 mph 1022.9mb 76f 74f
2:50pm 9ft 11s 9s 7
mph
1023.1mb 76f 74f
1:50pm 8ft 11s 9s 4
mph
1022.7mb 75f 74f
12:50pm 8.5ft 11s 9s 2 4 mph 1021.9mb 75f 74f
11:50am 7.5ft 11s 9s 2 4 mph 1021.6mb 75f 74f
10:50am 6ft 11s 8s 7 9 mph 1020.7mb 75f 73f
9:50am 5ft 10s 7s 11 13 mph 1019.7mb 74f 73f
8:50am 5ft 10s 7s 11 13 mph 1019.2mb 74f 73f
7:50am 5ft 10s 7s 13 16 mph 1018.8mb 74f 73f
6:50am 5ft 10s 7s 11
mph
1019mb 74f 73f
5:50am 5.5ft 10s 7s 13 16 mph 1019.5mb 75f 74f
4:50am 5ft 9s 7s 13 16 mph 1020.1mb 75f 74f
3:50am 4.5ft 9s 7s 13
mph
1020.7mb 75f 74f
2:50am 5ft 9s 7s 9
mph
1020.9mb 75f 74f
1:50am 5ft 10s 7s 11 13 mph 1020.7mb 75f 74f
12:50am 5ft 9s 7s 9 11 mph 1020.1mb 75f 74f
Wed 04/16 11:50pm 5ft 10s 7s 9
mph
1019.8mb 75f 74f
10:50pm 5ft 9s 7s 9 11 mph 1019.4mb 75f 74f
9:50pm 5ft 9s 7s 9 11 mph 1019mb 75f 74f
8:50pm 5ft 9s 7s 9 11 mph 1018.7mb 76f 74f
7:50pm 5ft 9s 7s 9 11 mph 1018.6mb 76f 74f
6:50pm 5ft 9s 7s 9
mph
1018.8mb 76f 74f
5:50pm 5ft 9s 7s 9 11 mph 1019.2mb 75f 74f
4:50pm 5ft 8s 6s 9
mph
1019.5mb 75f 74f
3:50pm 4.5ft 9s 6s 9 11 mph 1019.5mb 75f 74f
2:50pm 4.5ft 9s 6s 11 13 mph 1019mb 74f 74f
1:50pm 5ft 8s 6s 11 13 mph 1018.6mb 74f 74f
12:50pm 4.5ft 8s 6s 13 16 mph 1018.1mb 74f 74f
11:50am 5ft 9s 6s 16 18 mph 1017.5mb 74f 74f
10:50am 4.5ft 8s 6s 16 20 mph 1016.8mb 74f 74f
9:50am 4.5ft 8s 6s 18 20 mph 1016mb 74f 73f
8:50am 5ft 8s 6s 16 18 mph 1015.7mb 74f 73f
7:50am 5ft 8s 6s 16 18 mph 1015.9mb 74f 73f